createdAt,value
2024-03-16T00:01:04.595Z,30.81
2024-03-16T00:03:34.036Z,29.58
2024-03-16T00:05:44.308Z,29.58
2024-03-16T00:07:53.652Z,30.19
2024-03-16T00:10:03.559Z,29.61
2024-03-16T00:12:13.802Z,29.52
2024-03-16T00:14:23.430Z,28.76
2024-03-16T00:16:34.490Z,29.42
2024-03-16T00:18:44.525Z,29.24
2024-03-16T00:20:54.030Z,30.00
2024-03-16T00:23:04.057Z,30.65
2024-03-16T00:25:13.769Z,30.78
2024-03-16T00:27:23.642Z,30.49
2024-03-16T00:29:33.298Z,30.37
2024-03-16T00:31:42.664Z,30.34
2024-03-16T00:33:52.512Z,30.62
2024-03-16T00:36:02.697Z,30.17
2024-03-16T00:38:13.072Z,29.99
2024-03-16T00:40:22.856Z,29.81
2024-03-16T00:42:32.410Z,29.86
2024-03-16T00:44:42.000Z,30.22
2024-03-16T00:46:51.460Z,30.50
2024-03-16T00:49:01.316Z,30.34
2024-03-16T00:51:10.873Z,29.70
2024-03-16T00:53:20.391Z,29.80
2024-03-16T00:55:31.138Z,30.28
2024-03-16T00:57:42.099Z,29.53
2024-03-16T00:59:51.928Z,29.63
2024-03-16T01:02:01.718Z,30.08
2024-03-16T01:04:11.527Z,30.35
2024-03-16T01:06:20.996Z,30.40
2024-03-16T01:08:30.618Z,30.24
2024-03-16T01:10:40.266Z,30.22
2024-03-16T01:12:50.277Z,30.08
2024-03-16T01:15:01.209Z,30.26
2024-03-16T01:17:11.104Z,30.35
2024-03-16T01:19:21.261Z,30.77
2024-03-16T01:21:30.614Z,30.93
2024-03-16T01:23:40.146Z,30.75
2024-03-16T01:25:51.697Z,30.87
2024-03-16T01:28:01.239Z,30.84
2024-03-16T01:30:11.930Z,30.85
2024-03-16T01:32:21.607Z,30.89
2024-03-16T01:34:31.582Z,31.10
2024-03-16T01:36:41.096Z,31.36
2024-03-16T01:38:51.807Z,31.45
2024-03-16T01:41:01.648Z,31.21
2024-03-16T01:43:12.274Z,31.35
2024-03-16T01:45:21.804Z,31.21
2024-03-16T01:47:33.718Z,31.45
2024-03-16T01:49:43.509Z,31.78
2024-03-16T01:51:53.347Z,31.73
2024-03-16T01:54:02.941Z,32.03
2024-03-16T01:56:12.364Z,31.87
2024-03-16T01:58:21.883Z,31.78
2024-03-16T02:00:31.760Z,32.30
2024-03-16T02:02:41.733Z,32.24
2024-03-16T02:04:51.340Z,32.57
2024-03-16T02:07:05.624Z,32.26
2024-03-16T02:09:15.184Z,32.67
2024-03-16T02:11:25.867Z,33.03
2024-03-16T02:13:35.465Z,32.71
2024-03-16T02:15:45.271Z,33.06
2024-03-16T02:17:55.514Z,33.13
2024-03-16T02:20:07.199Z,33.27
2024-03-16T02:22:16.700Z,33.46
2024-03-16T02:24:27.286Z,34.35
2024-03-16T02:26:37.896Z,35.19
2024-03-16T02:28:47.551Z,35.42
2024-03-16T02:30:57.862Z,35.99
2024-03-16T02:33:09.269Z,36.14
2024-03-16T02:35:19.975Z,36.04
2024-03-16T02:37:29.515Z,36.36
2024-03-16T02:39:38.759Z,36.45
2024-03-16T02:41:48.464Z,36.74
2024-03-16T02:43:57.909Z,37.32
2024-03-16T02:46:08.225Z,37.45
2024-03-16T02:48:18.128Z,37.51
2024-03-16T02:50:28.170Z,37.79
2024-03-16T02:52:37.585Z,38.32
2024-03-16T02:54:47.475Z,38.48
2024-03-16T02:56:57.106Z,38.56
2024-03-16T02:59:07.848Z,39.16
2024-03-16T03:01:18.629Z,39.19
2024-03-16T03:03:28.358Z,39.36
2024-03-16T03:05:38.272Z,39.66
2024-03-16T03:07:48.278Z,40.14
2024-03-16T03:09:58.271Z,40.58
2024-03-16T03:12:08.198Z,41.18
2024-03-16T03:14:19.079Z,41.16
2024-03-16T03:16:28.906Z,41.51
2024-03-16T03:18:38.661Z,41.94
2024-03-16T03:20:48.796Z,42.09
2024-03-16T03:22:59.641Z,42.44
2024-03-16T03:25:09.309Z,42.65
2024-03-16T03:27:18.918Z,42.77
2024-03-16T03:29:28.377Z,43.14
2024-03-16T03:31:37.917Z,43.31
2024-03-16T03:33:47.967Z,43.42
2024-03-16T03:35:57.933Z,43.72
2024-03-16T03:38:09.682Z,43.76
2024-03-16T03:40:20.363Z,43.79
2024-03-16T03:42:31.619Z,43.86
2024-03-16T03:44:51.915Z,43.81
2024-03-16T03:47:01.668Z,44.17
2024-03-16T03:49:28.138Z,44.70
2024-03-16T03:51:38.096Z,44.49
2024-03-16T03:53:47.710Z,44.38
2024-03-16T03:55:58.039Z,44.33
2024-03-16T03:58:07.585Z,44.19
2024-03-16T04:00:17.667Z,44.26
2024-03-16T04:02:27.610Z,44.20
2024-03-16T04:04:37.688Z,43.90
2024-03-16T04:06:48.674Z,43.60
2024-03-16T04:08:58.156Z,43.53
2024-03-16T04:11:08.957Z,43.62
2024-03-16T04:13:18.981Z,43.51
2024-03-16T04:15:28.786Z,44.00
2024-03-16T04:17:38.611Z,43.93
2024-03-16T04:19:49.252Z,44.04
2024-03-16T04:21:59.234Z,44.34
2024-03-16T04:24:09.402Z,44.63
2024-03-16T04:26:18.934Z,44.67
2024-03-16T04:28:28.355Z,44.85
2024-03-16T04:30:37.985Z,45.30
2024-03-16T04:32:48.143Z,45.36
2024-03-16T04:34:57.630Z,45.76
2024-03-16T04:37:07.280Z,45.82
2024-03-16T04:39:17.528Z,45.73
2024-03-16T04:41:29.403Z,45.84
2024-03-16T04:43:40.297Z,44.41
2024-03-16T04:45:52.022Z,45.03
2024-03-16T04:48:01.655Z,45.22
2024-03-16T04:50:13.730Z,45.07
2024-03-16T04:52:23.665Z,44.63
2024-03-16T04:54:33.013Z,44.91
2024-03-16T04:56:42.772Z,45.11
2024-03-16T04:58:52.385Z,45.07
2024-03-16T05:01:02.214Z,45.24
2024-03-16T05:03:11.881Z,45.18
2024-03-16T05:05:21.732Z,45.41
2024-03-16T05:07:33.305Z,45.65
2024-03-16T05:09:43.099Z,45.53
2024-03-16T05:11:52.865Z,45.34
2024-03-16T05:14:03.618Z,45.77
2024-03-16T05:16:13.536Z,46.14
2024-03-16T05:18:23.368Z,46.42
2024-03-16T05:20:32.958Z,46.56
2024-03-16T05:22:42.726Z,46.10
2024-03-16T05:24:52.204Z,45.74
2024-03-16T05:27:02.217Z,45.28
2024-03-16T05:29:11.707Z,45.06
2024-03-16T05:31:21.285Z,44.46
2024-03-16T05:33:30.790Z,44.36
2024-03-16T05:35:42.863Z,43.82
2024-03-16T05:37:52.168Z,43.61
2024-03-16T05:40:01.808Z,43.12
2024-03-16T05:42:13.408Z,42.90
2024-03-16T05:44:22.706Z,42.66
2024-03-16T05:46:32.856Z,42.31
2024-03-16T05:48:43.016Z,42.62
2024-03-16T05:50:55.720Z,42.20
2024-03-16T05:53:05.762Z,42.06
2024-03-16T05:55:17.650Z,41.79
2024-03-16T05:57:27.416Z,41.42
2024-03-16T05:59:36.927Z,41.64
2024-03-16T06:01:47.207Z,41.46
2024-03-16T06:03:57.328Z,41.23
2024-03-16T06:06:07.481Z,41.28
2024-03-16T06:08:17.584Z,41.19
2024-03-16T06:10:27.070Z,41.11
2024-03-16T06:12:36.725Z,41.00
2024-03-16T06:14:46.106Z,40.95
2024-03-16T06:16:56.009Z,40.97
2024-03-16T06:19:06.293Z,41.01
2024-03-16T06:21:16.436Z,40.90
2024-03-16T06:23:26.130Z,40.85
2024-03-16T06:27:55.149Z,40.73
2024-03-16T06:30:05.425Z,40.24
2024-03-16T06:32:22.158Z,40.65
2024-03-16T06:34:31.691Z,40.63
2024-03-16T06:36:41.505Z,40.66
2024-03-16T06:38:51.319Z,40.74
2024-03-16T06:41:01.697Z,40.11
2024-03-16T06:43:11.246Z,40.22
2024-03-16T06:45:21.088Z,39.82
2024-03-16T06:47:30.417Z,39.80
2024-03-16T06:49:39.944Z,40.29
2024-03-16T06:51:49.647Z,39.96
2024-03-16T06:53:59.832Z,40.00
2024-03-16T06:56:11.616Z,40.20
2024-03-16T06:58:21.543Z,40.07
2024-03-16T07:00:32.015Z,40.27
2024-03-16T07:02:41.499Z,40.37
2024-03-16T07:04:51.258Z,40.51
2024-03-16T07:07:00.747Z,40.44
2024-03-16T07:09:12.289Z,40.44
2024-03-16T07:11:22.366Z,40.47
2024-03-16T07:13:31.669Z,40.66
2024-03-16T07:15:41.428Z,40.94
2024-03-16T07:17:50.854Z,40.93
2024-03-16T07:20:00.367Z,40.98
2024-03-16T07:22:10.634Z,41.06
2024-03-16T07:24:20.854Z,41.30
2024-03-16T07:26:30.558Z,41.23
2024-03-16T07:28:40.836Z,41.29
2024-03-16T07:30:50.766Z,41.33
2024-03-16T07:33:00.686Z,41.30
2024-03-16T07:35:10.181Z,41.35
2024-03-16T07:37:20.165Z,41.38
2024-03-16T07:39:29.729Z,41.38
2024-03-16T07:41:39.130Z,41.44
2024-03-16T07:43:48.924Z,41.57
2024-03-16T07:45:58.438Z,41.34
2024-03-16T07:48:08.496Z,41.44
2024-03-16T07:50:18.030Z,41.47
2024-03-16T07:52:29.052Z,41.72
2024-03-16T07:54:39.129Z,41.45
2024-03-16T07:56:50.834Z,41.58
2024-03-16T07:59:01.111Z,41.65
2024-03-16T08:01:12.240Z,41.42
2024-03-16T08:03:21.938Z,41.60
2024-03-16T08:05:32.627Z,41.63
2024-03-16T08:07:43.651Z,41.56
2024-03-16T08:09:53.589Z,41.54
2024-03-16T08:12:03.090Z,41.61
2024-03-16T08:14:13.214Z,41.68
2024-03-16T08:16:23.415Z,41.71
2024-03-16T08:18:32.922Z,41.90
2024-03-16T08:20:43.366Z,41.92
2024-03-16T08:22:56.009Z,41.93
2024-03-16T08:25:05.897Z,41.68
2024-03-16T08:27:15.471Z,41.81
2024-03-16T08:29:25.294Z,41.83
2024-03-16T08:31:35.217Z,41.52
2024-03-16T08:33:44.815Z,41.55
2024-03-16T08:35:54.598Z,41.56
2024-03-16T08:38:04.002Z,41.33
2024-03-16T08:40:15.679Z,41.37
2024-03-16T08:42:25.595Z,41.28
2024-03-16T08:44:36.894Z,41.31
2024-03-16T08:46:46.764Z,41.35
2024-03-16T08:48:56.521Z,41.16
2024-03-16T08:51:06.474Z,41.16
2024-03-16T08:53:16.131Z,40.95
2024-03-16T08:55:27.482Z,41.11
2024-03-16T08:57:37.702Z,41.06
2024-03-16T08:59:47.831Z,40.89
2024-03-16T09:01:57.352Z,40.64
2024-03-16T09:04:08.068Z,40.76
2024-03-16T09:06:17.681Z,40.77
2024-03-16T09:08:27.403Z,40.80
2024-03-16T09:10:37.436Z,41.00
2024-03-16T09:12:48.990Z,40.89
2024-03-16T09:14:58.989Z,40.80
2024-03-16T09:17:09.211Z,40.90
2024-03-16T09:19:18.858Z,40.86
2024-03-16T09:21:28.419Z,40.91
2024-03-16T09:23:38.925Z,40.90
2024-03-16T09:25:55.942Z,40.97
2024-03-16T09:28:05.327Z,40.85
2024-03-16T09:30:16.761Z,40.97
2024-03-16T09:32:26.268Z,40.76
2024-03-16T09:34:36.319Z,40.75
2024-03-16T09:36:46.476Z,40.59
2024-03-16T09:38:56.007Z,40.87
2024-03-16T09:41:06.379Z,40.72
2024-03-16T09:43:16.909Z,40.70
2024-03-16T09:45:27.421Z,40.51
2024-03-16T09:47:37.557Z,40.74
2024-03-16T09:49:49.601Z,40.37
2024-03-16T09:52:01.326Z,40.15
2024-03-16T09:54:13.118Z,40.17
2024-03-16T09:56:23.040Z,39.76
2024-03-16T09:58:32.658Z,39.57
2024-03-16T10:00:45.976Z,39.44
2024-03-16T10:02:55.448Z,39.51
2024-03-16T10:05:06.949Z,39.15
2024-03-16T10:07:16.767Z,38.68
2024-03-16T10:09:27.708Z,38.61
2024-03-16T10:11:38.042Z,38.76
2024-03-16T10:13:56.567Z,38.74
2024-03-16T10:16:06.463Z,38.87
2024-03-16T10:18:17.086Z,38.82
2024-03-16T10:20:26.682Z,38.68
2024-03-16T10:22:36.798Z,38.94
2024-03-16T10:24:46.267Z,38.90
2024-03-16T10:26:55.980Z,38.75
2024-03-16T10:29:06.084Z,38.52
2024-03-16T10:31:15.887Z,38.66
2024-03-16T10:33:26.739Z,38.29
2024-03-16T10:35:36.974Z,37.91
2024-03-16T10:37:50.547Z,38.01
2024-03-16T10:40:01.361Z,37.87
2024-03-16T10:42:17.829Z,37.69
2024-03-16T10:44:28.500Z,37.68
2024-03-16T10:46:37.878Z,38.13
2024-03-16T10:48:47.253Z,37.74
2024-03-16T10:50:57.586Z,37.83
2024-03-16T10:53:08.420Z,37.54
2024-03-16T10:55:24.230Z,37.42
2024-03-16T10:57:34.464Z,37.28
2024-03-16T10:59:45.996Z,37.48
2024-03-16T11:01:57.179Z,37.25
2024-03-16T11:04:08.687Z,36.82
2024-03-16T11:06:23.608Z,37.07
2024-03-16T11:08:43.918Z,36.36
2024-03-16T11:10:54.670Z,36.02
2024-03-16T11:13:17.489Z,35.88
2024-03-16T11:15:42.910Z,36.11
2024-03-16T11:17:52.790Z,35.94
2024-03-16T11:20:15.689Z,36.14
2024-03-16T11:22:26.000Z,35.89
2024-03-16T11:24:36.057Z,36.18
2024-03-16T11:26:46.479Z,35.75
2024-03-16T11:28:57.307Z,36.28
2024-03-16T11:31:31.885Z,36.76
2024-03-16T11:33:43.179Z,36.53
2024-03-16T11:35:53.208Z,36.89
2024-03-16T11:38:02.531Z,36.68
2024-03-16T11:40:13.920Z,36.99
2024-03-16T11:42:23.451Z,37.11
2024-03-16T11:44:32.850Z,37.28
2024-03-16T11:46:43.467Z,37.48
2024-03-16T11:48:52.951Z,37.55
2024-03-16T11:51:02.881Z,37.66
2024-03-16T11:53:12.802Z,37.86
2024-03-16T11:55:23.424Z,38.10
2024-03-16T11:57:32.733Z,38.23
2024-03-16T11:59:42.602Z,38.13
2024-03-16T12:01:53.350Z,38.22
2024-03-16T12:04:03.740Z,38.32
2024-03-16T12:06:13.502Z,38.49
2024-03-16T12:08:22.878Z,38.51
2024-03-16T12:10:34.215Z,38.51
2024-03-16T12:12:45.391Z,38.58
2024-03-16T12:15:08.580Z,38.68
2024-03-16T12:17:18.023Z,38.73
2024-03-16T12:19:27.381Z,38.85
2024-03-16T12:21:37.055Z,39.05
2024-03-16T12:23:50.641Z,39.13
2024-03-16T12:26:00.860Z,39.17
2024-03-16T12:28:10.536Z,39.18
2024-03-16T12:30:20.322Z,39.29
2024-03-16T12:32:30.005Z,39.41
2024-03-16T12:34:41.201Z,39.34
2024-03-16T12:36:51.173Z,39.36
2024-03-16T12:39:00.676Z,39.50
2024-03-16T12:41:10.852Z,39.41
2024-03-16T12:43:21.323Z,39.48
2024-03-16T12:45:30.791Z,39.50
2024-03-16T12:47:40.561Z,39.50
2024-03-16T12:49:50.930Z,39.53
2024-03-16T12:52:00.504Z,39.57
2024-03-16T12:54:11.048Z,39.71
2024-03-16T12:56:20.763Z,39.71
2024-03-16T12:58:30.374Z,39.71
2024-03-16T13:00:40.013Z,39.70
2024-03-16T13:02:49.765Z,39.78
2024-03-16T13:04:59.851Z,39.57
2024-03-16T13:07:09.864Z,39.79
2024-03-16T13:09:19.316Z,39.74
2024-03-16T13:11:29.099Z,39.86
2024-03-16T13:13:38.901Z,40.00
2024-03-16T13:15:48.682Z,39.83
2024-03-16T13:17:58.387Z,39.92
2024-03-16T13:20:11.014Z,39.98
2024-03-16T13:22:20.684Z,40.07
2024-03-16T13:24:30.208Z,40.04
2024-03-16T13:26:39.821Z,39.86
2024-03-16T13:28:49.490Z,40.05
2024-03-16T13:30:59.699Z,39.97
2024-03-16T13:33:10.519Z,40.12
2024-03-16T13:35:20.688Z,40.29
2024-03-16T13:37:31.294Z,40.16
2024-03-16T13:39:41.019Z,40.34
2024-03-16T13:41:51.068Z,40.31
2024-03-16T13:44:01.028Z,40.22
2024-03-16T13:46:14.798Z,40.29
2024-03-16T13:48:26.024Z,40.44
2024-03-16T13:50:35.610Z,40.40
2024-03-16T13:52:45.310Z,40.44
2024-03-16T13:54:54.719Z,40.42
2024-03-16T13:57:04.690Z,40.38
2024-03-16T13:59:14.342Z,40.57
2024-03-16T14:01:24.146Z,40.67
2024-03-16T14:03:33.559Z,40.55
2024-03-16T14:05:43.019Z,40.51
2024-03-16T14:07:52.369Z,40.72
2024-03-16T14:10:03.146Z,40.33
2024-03-16T14:12:12.691Z,40.36
2024-03-16T14:14:21.900Z,40.45
2024-03-16T14:16:31.378Z,40.44
2024-03-16T14:18:40.826Z,40.41
2024-03-16T14:20:50.060Z,40.45
2024-03-16T14:22:59.551Z,40.45
2024-03-16T14:25:09.376Z,40.33
2024-03-16T14:27:18.669Z,40.22
2024-03-16T14:29:28.441Z,39.94
2024-03-16T14:31:38.398Z,40.20
2024-03-16T14:33:47.694Z,40.16
2024-03-16T14:35:57.575Z,40.12
2024-03-16T14:38:07.619Z,40.23
2024-03-16T14:40:24.038Z,40.22
2024-03-16T14:42:33.580Z,40.18
2024-03-16T14:44:42.978Z,40.10
2024-03-16T14:46:53.139Z,40.24
2024-03-16T14:49:03.176Z,40.37
2024-03-16T14:51:12.600Z,40.30
2024-03-16T14:53:21.999Z,40.40
2024-03-16T14:55:31.560Z,40.41
2024-03-16T14:57:41.021Z,40.49
2024-03-16T14:59:50.430Z,40.61
2024-03-16T15:02:00.513Z,40.62
2024-03-16T15:04:10.006Z,40.78
2024-03-16T15:06:19.707Z,40.80
2024-03-16T15:08:29.179Z,40.97
2024-03-16T15:10:38.525Z,41.08
2024-03-16T15:12:48.151Z,40.97
2024-03-16T15:14:57.772Z,41.19
2024-03-16T15:17:07.298Z,41.27
2024-03-16T15:19:17.379Z,41.21
2024-03-16T15:21:27.482Z,41.37
2024-03-16T15:23:36.976Z,41.04
2024-03-16T15:26:03.889Z,41.07
2024-03-16T15:28:15.316Z,41.08
2024-03-16T15:30:26.043Z,40.94
2024-03-16T15:32:36.722Z,41.17
2024-03-16T15:34:46.175Z,41.08
2024-03-16T15:36:55.942Z,41.11
2024-03-16T15:39:06.300Z,41.17
2024-03-16T15:41:16.877Z,41.11
2024-03-16T15:43:26.471Z,41.14
2024-03-16T15:47:19.550Z,41.13
2024-03-16T15:49:33.061Z,41.25
2024-03-16T15:51:45.097Z,41.26
2024-03-16T15:53:59.396Z,41.39
2024-03-16T15:56:15.013Z,41.28
2024-03-16T15:58:28.947Z,41.24
2024-03-16T16:00:43.066Z,41.11
2024-03-16T16:02:57.595Z,40.88
2024-03-16T16:05:14.417Z,40.69
2024-03-16T16:07:26.590Z,40.43
2024-03-16T16:09:38.910Z,40.03
2024-03-16T16:11:51.773Z,40.09
2024-03-16T16:14:05.234Z,40.10
2024-03-16T16:16:17.370Z,39.96
2024-03-16T16:18:29.562Z,39.89
2024-03-16T16:20:41.830Z,40.01
2024-03-16T16:22:55.645Z,39.88
2024-03-16T16:25:08.827Z,40.05
2024-03-16T16:27:21.980Z,40.01
2024-03-16T16:29:33.913Z,39.77
2024-03-16T16:31:45.904Z,39.94
2024-03-16T16:33:55.737Z,39.90
2024-03-16T16:36:08.286Z,39.99
2024-03-16T16:38:20.468Z,40.02
2024-03-16T16:40:32.549Z,39.80
2024-03-16T16:42:45.106Z,39.27
2024-03-16T16:44:57.329Z,39.30
2024-03-16T16:47:06.875Z,39.39
2024-03-16T16:49:18.988Z,39.14
2024-03-16T16:51:31.059Z,39.35
2024-03-16T16:53:43.457Z,38.84
2024-03-16T16:55:55.942Z,38.87
2024-03-16T16:58:07.998Z,38.66
2024-03-16T17:00:22.745Z,38.78
2024-03-16T17:02:36.764Z,38.75
2024-03-16T17:04:49.218Z,38.77
2024-03-16T17:07:01.852Z,39.01
2024-03-16T17:09:13.708Z,39.10
2024-03-16T17:11:26.476Z,39.06
2024-03-16T17:13:40.498Z,38.52
2024-03-16T17:15:52.438Z,38.44
2024-03-16T17:18:06.751Z,38.41
2024-03-16T17:20:27.357Z,38.39
2024-03-16T17:22:39.550Z,38.34
2024-03-16T17:24:51.929Z,38.02
2024-03-16T17:27:03.256Z,37.73
2024-03-16T17:29:17.200Z,37.60
2024-03-16T17:31:29.346Z,37.42
2024-03-16T17:33:41.612Z,36.99
2024-03-16T17:35:54.231Z,37.18
2024-03-16T17:38:10.774Z,36.75
2024-03-16T17:40:23.010Z,36.25
2024-03-16T17:42:35.610Z,36.23
2024-03-16T17:44:47.557Z,35.91
2024-03-16T17:46:59.527Z,35.70
2024-03-16T17:49:12.280Z,36.11
2024-03-16T17:51:24.470Z,36.10
2024-03-16T17:53:36.864Z,35.93
2024-03-16T17:55:49.711Z,34.80
2024-03-16T17:58:01.993Z,34.88
2024-03-16T18:00:17.018Z,35.35
2024-03-16T18:02:29.420Z,35.26
2024-03-16T18:04:38.901Z,34.83
2024-03-16T18:06:51.759Z,34.52
2024-03-16T18:09:05.902Z,34.82
2024-03-16T18:11:17.801Z,34.58
2024-03-16T18:13:29.864Z,34.83
2024-03-16T18:15:42.650Z,34.48
2024-03-16T18:18:01.225Z,33.63
2024-03-16T18:20:21.967Z,34.47
2024-03-16T18:22:35.140Z,34.08
2024-03-16T18:24:51.393Z,34.52
2024-03-16T18:27:03.872Z,34.11
2024-03-16T18:29:16.470Z,33.56
2024-03-16T18:31:29.133Z,33.10
2024-03-16T18:33:41.610Z,32.99
2024-03-16T18:35:54.108Z,33.52
2024-03-16T18:38:07.197Z,32.71
2024-03-16T18:40:22.809Z,32.22
2024-03-16T18:42:36.291Z,32.27
2024-03-16T18:44:48.716Z,32.74
2024-03-16T18:47:02.718Z,32.97
2024-03-16T18:49:15.286Z,32.99
2024-03-16T18:51:28.780Z,32.93
2024-03-16T18:53:41.434Z,32.99
2024-03-16T18:55:54.488Z,33.22
2024-03-16T18:58:07.924Z,32.72
2024-03-16T19:00:24.456Z,32.90
2024-03-16T19:02:45.042Z,32.71
2024-03-16T19:05:00.883Z,32.67
2024-03-16T19:07:13.618Z,32.95
2024-03-16T19:09:27.261Z,32.54
2024-03-16T19:11:39.999Z,32.70
2024-03-16T19:13:55.056Z,32.18
2024-03-16T19:16:08.290Z,32.67
2024-03-16T19:18:20.798Z,32.46
2024-03-16T19:20:33.843Z,32.18
2024-03-16T19:22:46.949Z,31.14
2024-03-16T19:25:00.397Z,31.36
2024-03-16T19:27:13.707Z,31.69
2024-03-16T19:29:26.609Z,32.06
2024-03-16T19:31:40.156Z,30.61
2024-03-16T19:33:52.686Z,30.93
2024-03-16T19:36:05.452Z,30.82
2024-03-16T19:38:18.308Z,31.04
2024-03-16T19:40:31.155Z,31.40
2024-03-16T19:42:43.717Z,30.79
2024-03-16T19:44:56.753Z,31.07
2024-03-16T19:47:09.656Z,30.66
2024-03-16T19:49:22.130Z,30.94
2024-03-16T19:51:34.735Z,30.67
2024-03-16T19:53:47.161Z,29.80
2024-03-16T19:56:00.353Z,29.51
2024-03-16T19:58:13.453Z,29.80
2024-03-16T20:00:27.725Z,26.87
2024-03-16T20:38:06.046Z,31.20
2024-03-16T20:40:20.033Z,31.21
2024-03-16T20:42:35.629Z,30.59
2024-03-16T20:44:48.178Z,30.97
2024-03-16T20:47:01.543Z,30.91
2024-03-16T20:49:14.736Z,31.23
2024-03-16T20:51:27.567Z,32.02
2024-03-16T20:53:40.388Z,32.21
2024-03-16T20:55:53.366Z,32.37
2024-03-16T20:58:06.137Z,32.08
2024-03-16T21:00:19.598Z,31.81
2024-03-16T21:02:32.980Z,32.28
2024-03-16T21:04:45.703Z,31.97
2024-03-16T21:06:58.339Z,32.34
2024-03-16T21:09:11.316Z,33.51
2024-03-16T21:11:27.189Z,33.74
2024-03-16T21:13:40.274Z,33.26
2024-03-16T21:15:52.711Z,32.80
2024-03-16T21:18:05.273Z,31.86
2024-03-16T21:20:19.280Z,32.78
2024-03-16T21:22:34.466Z,32.81
2024-03-16T21:24:47.202Z,33.00
2024-03-16T21:26:59.708Z,32.31
2024-03-16T21:29:12.091Z,33.45
2024-03-16T21:31:28.858Z,33.70
2024-03-16T21:33:41.522Z,34.04
2024-03-16T21:35:54.316Z,34.58
2024-03-16T21:38:07.022Z,34.12
2024-03-16T21:40:20.939Z,34.42
2024-03-16T21:42:33.899Z,34.64
2024-03-16T21:44:46.601Z,34.08
2024-03-16T21:46:59.059Z,34.38
2024-03-16T21:49:11.551Z,34.47
2024-03-16T21:51:24.461Z,34.93
2024-03-16T21:53:38.249Z,34.62
2024-03-16T21:55:51.791Z,34.86
2024-03-16T21:58:05.475Z,35.14
2024-03-16T22:00:19.530Z,35.19
2024-03-16T22:02:32.476Z,35.84
2024-03-16T22:04:47.590Z,35.76
2024-03-16T22:07:00.046Z,35.01
2024-03-16T22:09:12.662Z,35.05
2024-03-16T22:11:25.199Z,34.39
2024-03-16T22:13:38.270Z,34.07
2024-03-16T22:15:50.752Z,33.65
2024-03-16T22:18:03.676Z,33.52
2024-03-16T22:20:17.531Z,32.84
2024-03-16T22:22:30.140Z,33.33
2024-03-16T22:24:42.780Z,33.57
2024-03-16T22:26:55.173Z,33.64
2024-03-16T22:29:08.689Z,33.70
2024-03-16T22:31:22.220Z,34.00
2024-03-16T22:33:34.846Z,34.46
2024-03-16T22:35:47.480Z,34.45
2024-03-16T22:37:59.967Z,35.14
2024-03-16T22:40:14.283Z,35.84
2024-03-16T22:42:27.220Z,36.49
2024-03-16T22:44:40.540Z,36.56
2024-03-16T22:46:53.000Z,36.77
2024-03-16T22:49:05.402Z,36.41
2024-03-16T22:51:18.074Z,36.14
2024-03-16T22:53:30.809Z,35.47
2024-03-16T22:55:43.270Z,35.75
2024-03-16T22:57:55.743Z,36.39
2024-03-16T23:00:11.408Z,36.63
2024-03-16T23:02:23.828Z,36.70
2024-03-16T23:04:36.350Z,35.35
2024-03-16T23:06:49.325Z,34.81
2024-03-16T23:09:02.614Z,35.31
2024-03-16T23:11:16.100Z,35.09
2024-03-16T23:13:29.313Z,34.70
2024-03-16T23:15:42.788Z,34.80
2024-03-16T23:17:55.399Z,35.61
2024-03-16T23:20:08.476Z,35.65
2024-03-16T23:22:21.711Z,34.91
2024-03-16T23:24:34.495Z,35.17
2024-03-16T23:26:47.168Z,35.84
2024-03-16T23:29:00.209Z,36.17
2024-03-16T23:31:13.357Z,36.17
2024-03-16T23:33:26.094Z,36.21
2024-03-16T23:37:53.138Z,36.01
2024-03-16T23:40:09.984Z,35.93
2024-03-16T23:42:26.772Z,36.15
2024-03-16T23:44:39.458Z,36.19
2024-03-16T23:46:52.774Z,36.27
2024-03-16T23:49:05.323Z,35.79
2024-03-16T23:51:17.801Z,35.84
2024-03-16T23:53:30.319Z,35.97
2024-03-16T23:55:42.720Z,36.14
2024-03-16T23:57:56.366Z,36.11
